createdAt,value
2022-12-31T04:03:28.735Z,98333.94
2022-12-31T04:06:38.509Z,98336.69
2022-12-31T04:09:48.215Z,98326.84
2022-12-31T04:13:00.315Z,98330.56
2022-12-31T04:16:10.267Z,98326.56
2022-12-31T04:19:21.436Z,98334.09
2022-12-31T04:22:31.244Z,98336.06
2022-12-31T04:25:40.951Z,98339.28
2022-12-31T04:28:54.036Z,98361.72
2022-12-31T04:32:04.420Z,98355.75
2022-12-31T04:35:15.621Z,98337.66
2022-12-31T04:38:25.321Z,98354.63
2022-12-31T04:41:35.294Z,98365.81
2022-12-31T04:44:45.028Z,98368.16
2022-12-31T04:47:54.870Z,98350.19
2022-12-31T04:51:05.968Z,98361.38
2022-12-31T04:54:15.719Z,98375.44
2022-12-31T04:57:27.595Z,98376.75
2022-12-31T05:00:37.344Z,98379.47
2022-12-31T05:03:47.254Z,98390.69
2022-12-31T05:06:58.275Z,98376.25
2022-12-31T05:10:08.614Z,98366.09
2022-12-31T05:13:18.386Z,98359.88
2022-12-31T05:16:28.125Z,98366.97
2022-12-31T05:19:37.833Z,98383.78
2022-12-31T05:22:48.803Z,98386.59
2022-12-31T05:25:59.522Z,98379.19
2022-12-31T05:29:09.213Z,98382.03
2022-12-31T05:32:18.994Z,98394.53
2022-12-31T05:35:28.696Z,98398.09
2022-12-31T05:38:39.785Z,98398.94
2022-12-31T05:41:49.996Z,98412.00
2022-12-31T05:44:59.805Z,98399.91
2022-12-31T05:48:09.535Z,98418.25
2022-12-31T05:51:19.229Z,98418.44
2022-12-31T05:54:30.336Z,98416.63
2022-12-31T05:57:40.979Z,98413.25
2022-12-31T08:23:38.191Z,98557.63
2022-12-31T08:26:59.425Z,98564.06
2022-12-31T08:30:12.959Z,98564.75
2022-12-31T08:33:30.260Z,98559.59
2022-12-31T08:36:46.515Z,98550.41
2022-12-31T08:40:13.361Z,98542.28
2022-12-31T08:43:38.698Z,98546.06
2022-12-31T08:46:55.547Z,98553.97
2022-12-31T08:50:06.175Z,98565.78
2022-12-31T08:53:16.476Z,98559.38
2022-12-31T08:56:33.671Z,98563.94
2022-12-31T08:59:52.669Z,98565.78
2022-12-31T09:03:16.496Z,98561.78
2022-12-31T09:06:30.204Z,98578.59
2022-12-31T09:09:53.573Z,98566.13
2022-12-31T09:13:13.154Z,98572.94
2022-12-31T09:16:30.438Z,98559.72
2022-12-31T09:19:40.093Z,98556.31
2022-12-31T09:22:50.179Z,98561.69
2022-12-31T09:26:12.184Z,98574.31
2022-12-31T09:29:36.355Z,98570.97
2022-12-31T09:33:01.058Z,98582.69
2022-12-31T09:36:17.400Z,98587.31
2022-12-31T09:39:34.500Z,98593.13
2022-12-31T09:43:03.542Z,98583.78
2022-12-31T09:46:42.945Z,98589.97
2022-12-31T09:50:20.793Z,98582.84
2022-12-31T09:53:47.574Z,98586.75
2022-12-31T09:57:16.102Z,98584.69
2022-12-31T10:00:34.800Z,98599.47
2022-12-31T14:52:53.257Z,98562.91
2022-12-31T14:56:05.709Z,98559.09
2022-12-31T14:59:27.089Z,98575.75
2022-12-31T15:02:37.149Z,98573.09
2022-12-31T15:05:55.948Z,98567.75
2022-12-31T15:09:21.940Z,98576.19
2022-12-31T15:12:47.565Z,98573.84
2022-12-31T15:16:11.268Z,98566.44
2022-12-31T15:19:46.734Z,98569.19
2022-12-31T15:22:56.917Z,98579.84
2022-12-31T15:26:08.464Z,98580.50
2022-12-31T15:29:27.421Z,98568.94
2022-12-31T15:32:42.490Z,98580.75
2022-12-31T15:35:54.796Z,98586.06
2022-12-31T15:39:24.319Z,98583.41
2022-12-31T15:42:49.693Z,98588.66
2022-12-31T15:46:01.697Z,98591.09
2022-12-31T15:49:16.542Z,98586.31
2022-12-31T15:52:31.459Z,98595.06
2022-12-31T15:55:45.601Z,98599.00
2022-12-31T15:59:00.447Z,98591.59
2022-12-31T16:02:20.094Z,98585.75
2022-12-31T16:05:29.937Z,98591.09
2022-12-31T16:08:41.314Z,98590.38
2022-12-31T16:11:52.199Z,98596.25
2022-12-31T16:15:03.652Z,98593.44
2022-12-31T16:18:22.376Z,98607.50
2022-12-31T16:21:34.407Z,98613.03
2022-12-31T16:25:19.626Z,98612.16
2022-12-31T16:28:19.538Z,98608.84
2022-12-31T16:31:31.483Z,98607.53
2022-12-31T16:34:41.220Z,98609.47
2022-12-31T16:38:02.150Z,98597.53
2022-12-31T16:41:18.827Z,98600.13
2022-12-31T16:44:31.031Z,98591.38
2022-12-31T16:47:43.800Z,98587.03
2022-12-31T16:50:55.638Z,98594.94
2022-12-31T16:54:05.677Z,98594.13
2022-12-31T16:57:22.352Z,98588.25
2022-12-31T17:00:34.108Z,98590.91
2022-12-31T17:03:52.247Z,98578.84
2022-12-31T17:07:25.816Z,98594.38
2022-12-31T17:10:36.681Z,98584.13
2022-12-31T17:13:55.239Z,98586.94
2022-12-31T17:17:07.849Z,98588.09
2022-12-31T17:20:25.611Z,98596.56
2022-12-31T17:23:37.342Z,98591.41
2022-12-31T17:26:47.118Z,98591.09
2022-12-31T17:30:20.480Z,98592.84
2022-12-31T17:33:32.005Z,98592.13
2022-12-31T17:36:55.344Z,98598.59
2022-12-31T17:40:48.773Z,98613.38
2022-12-31T17:43:37.864Z,98604.81
2022-12-31T17:46:49.122Z,98615.72
2022-12-31T17:49:58.891Z,98602.69
2022-12-31T17:53:13.910Z,98615.47
2022-12-31T17:56:23.731Z,98617.56
2022-12-31T17:59:35.387Z,98628.78
2022-12-31T18:02:45.206Z,98615.94
2022-12-31T18:05:55.143Z,98623.63
2022-12-31T18:09:06.113Z,98630.66
2022-12-31T18:12:16.575Z,98620.88
2022-12-31T18:15:26.430Z,98617.38
2022-12-31T18:18:39.937Z,98644.03
2022-12-31T18:21:49.769Z,98628.63
2022-12-31T18:25:00.726Z,98622.53
2022-12-31T18:28:11.809Z,98632.56
2022-12-31T18:31:24.390Z,98643.06
2022-12-31T18:34:34.563Z,98633.09
2022-12-31T18:37:44.766Z,98646.47
2022-12-31T18:40:58.042Z,98640.69
2022-12-31T18:44:08.395Z,98640.78
2022-12-31T18:47:23.086Z,98648.53
2022-12-31T18:50:32.869Z,98650.94
2022-12-31T18:53:43.061Z,98647.72
2022-12-31T18:56:57.176Z,98649.69
2022-12-31T19:00:09.138Z,98640.97
2022-12-31T19:03:21.064Z,98634.19
2022-12-31T19:06:31.609Z,98634.28
2022-12-31T19:09:46.069Z,98632.56
2022-12-31T19:12:57.435Z,98641.31
2022-12-31T19:16:07.907Z,98643.81
2022-12-31T19:19:18.104Z,98645.94
2022-12-31T19:22:27.801Z,98642.03
2022-12-31T19:25:47.699Z,98647.19
2022-12-31T19:28:58.708Z,98642.75
2022-12-31T19:32:08.442Z,98643.47
2022-12-31T19:35:18.453Z,98636.59
2022-12-31T19:38:32.054Z,98647.75
2022-12-31T19:41:43.445Z,98656.03
2022-12-31T19:44:54.527Z,98659.88
2022-12-31T19:48:04.222Z,98657.72
2022-12-31T19:51:19.767Z,98663.44
2022-12-31T19:54:31.598Z,98663.25
2022-12-31T19:57:41.855Z,98668.41
2022-12-31T20:00:58.209Z,98671.63
2022-12-31T20:04:11.684Z,98679.00
2022-12-31T20:07:26.994Z,98678.44
2022-12-31T20:10:38.008Z,98670.69
2022-12-31T20:13:48.951Z,98676.41
2022-12-31T20:17:00.205Z,98676.06
2022-12-31T20:20:10.491Z,98671.97
2022-12-31T20:23:20.237Z,98689.25
2022-12-31T20:26:30.027Z,98677.13
2022-12-31T20:29:39.872Z,98677.84
2022-12-31T20:32:52.619Z,98676.41
2022-12-31T20:36:03.325Z,98680.59
2022-12-31T20:39:15.834Z,98685.16
2022-12-31T20:42:25.745Z,98686.59
2022-12-31T20:45:35.569Z,98678.91
2022-12-31T20:48:47.795Z,98684.44
2022-12-31T20:51:57.742Z,98674.81
2022-12-31T20:55:09.651Z,98684.88
2022-12-31T20:58:19.436Z,98677.75
2022-12-31T21:01:48.202Z,98673.66
2022-12-31T21:05:01.193Z,98673.22
2022-12-31T21:08:11.137Z,98670.91
2022-12-31T21:11:31.840Z,98682.03
2022-12-31T21:14:44.900Z,98689.78
2022-12-31T21:17:54.897Z,98678.56
2022-12-31T21:21:06.183Z,98692.69
2022-12-31T21:24:21.804Z,98686.38
2022-12-31T21:27:33.413Z,98697.81
2022-12-31T21:30:43.378Z,98703.59
2022-12-31T21:33:53.092Z,98696.38
2022-12-31T21:37:04.174Z,98706.50
2022-12-31T21:40:14.126Z,98709.91
2022-12-31T21:43:23.895Z,98718.44
2022-12-31T21:46:33.904Z,98724.41
2022-12-31T21:49:43.699Z,98727.53
2022-12-31T21:52:54.780Z,98738.19
2022-12-31T21:56:11.599Z,98734.00
2022-12-31T21:59:32.472Z,98734.78
2022-12-31T22:02:59.734Z,98741.56
2022-12-31T22:06:12.970Z,98741.38
2022-12-31T22:09:24.067Z,98743.16
2022-12-31T22:12:33.832Z,98744.56
2022-12-31T22:15:44.517Z,98737.25
2022-12-31T22:18:56.416Z,98736.19
2022-12-31T22:22:06.479Z,98733.09
2022-12-31T22:25:17.760Z,98734.97
2022-12-31T22:28:42.875Z,98742.56
2022-12-31T22:31:57.999Z,98745.25
2022-12-31T22:35:10.621Z,98745.25
2022-12-31T22:38:20.331Z,98762.50
2022-12-31T22:41:31.336Z,98751.81
2022-12-31T22:44:41.172Z,98765.66
2022-12-31T22:47:50.797Z,98764.78
2022-12-31T22:51:00.463Z,98750.19
2022-12-31T22:54:10.924Z,98762.41
2022-12-31T22:57:21.985Z,98763.19
2022-12-31T23:00:42.229Z,98770.47
2022-12-31T23:03:53.764Z,98767.78
2022-12-31T23:07:03.503Z,98773.84
2022-12-31T23:10:24.234Z,98767.09
2022-12-31T23:13:51.404Z,98774.81
2022-12-31T23:17:31.182Z,98763.72
2022-12-31T23:20:52.751Z,98761.91
2022-12-31T23:24:04.378Z,98758.97
2022-12-31T23:27:14.218Z,98764.63
2022-12-31T23:30:25.367Z,98775.25
2022-12-31T23:33:35.229Z,98771.50
2022-12-31T23:36:44.940Z,98767.91
2022-12-31T23:39:54.678Z,98759.88
2022-12-31T23:43:06.307Z,98776.66
2022-12-31T23:46:18.174Z,98766.50
2022-12-31T23:49:27.977Z,98769.91
2022-12-31T23:52:37.779Z,98764.34
2022-12-31T23:55:47.608Z,98774.19
2022-12-31T23:58:58.579Z,98770.63
